Time;durP1;ratioP1;P1;durP2;ratioP2;P2;SDS_P1;SDS_P2;PMS_P1;PMS_P2;Temp;Humidity;BMP_temperature;BMP_pressure;BME280_temperature;BME280_humidity;BME280_pressure;Samples;Min_cycle;Max_cycle;Signal;HPM_P1;HPM_P2
2022/09/21 10:48:54;;;;;;;11.15;3.28;;;;;;;;;;4375178;32;61119;-58
2022/09/21 10:51:45;;;;;;;5.78;3.50;;;;;;;;;;4355866;32;70697;-59
2022/09/21 10:54:33;;;;;;;7.15;3.53;;;;;;;;;;4357442;32;69361;-59
2022/09/21 10:57:22;;;;;;;7.95;3.40;;;;;;;;;;4346661;32;67003;-58
2022/09/21 11:00:23;;;;;;;5.30;3.40;;;;;;;;;;4346506;32;59834;-59
2022/09/21 11:03:27;;;;;;;7.55;3.87;;;;;;;;;;4368388;32;70674;-58
2022/09/21 11:06:30;;;;;;;8.27;3.80;;;;;;;;;;4356891;32;68455;-59
2022/09/21 11:09:35;;;;;;;4.75;3.50;;;;;;;;;;4357242;32;66820;-60
2022/09/21 11:12:32;;;;;;;5.05;3.40;;;;;;;;;;4346404;32;70735;-60
2022/09/21 11:15:46;;;;;;;6.10;3.12;;;;;;;;;;4357263;32;64999;-59
2022/09/21 11:18:53;;;;;;;6.07;3.05;;;;;;;;;;4336157;32;67091;-60
2022/09/21 11:21:43;;;;;;;5.68;3.15;;;;;;;;;;4346938;32;60373;-59
2022/09/21 11:24:39;;;;;;;4.90;3.20;;;;;;;;;;4333360;32;72456;-59
2022/09/21 11:27:32;;;;;;;5.72;3.17;;;;;;;;;;4357283;32;66214;-60
2022/09/21 11:30:19;;;;;;;8.77;3.47;;;;;;;;;;4346435;32;66993;-59
2022/09/21 11:33:27;;;;;;;6.97;3.05;;;;;;;;;;4336374;32;59173;-59
2022/09/21 11:36:30;;;;;;;5.60;2.97;;;;;;;;;;4368947;32;70339;-60
2022/09/21 11:39:48;;;;;;;5.72;3.17;;;;;;;;;;4357019;32;69499;-60
2022/09/21 11:42:56;;;;;;;5.83;3.23;;;;;;;;;;4343921;32;67205;-60
2022/09/21 11:46:06;;;;;;;4.65;3.20;;;;;;;;;;4356651;32;71167;-59
2022/09/21 11:49:05;;;;;;;6.70;3.40;;;;;;;;;;4346590;32;65874;-59
2022/09/21 11:51:55;;;;;;;9.40;3.00;;;;;;;;;;4357073;32;69303;-60
2022/09/21 11:55:03;;;;;;;5.45;2.97;;;;;;;;;;4368761;32;67881;-60
2022/09/21 11:57:56;;;;;;;7.55;2.78;;;;;;;;;;4356707;32;71616;-60
2022/09/21 12:00:57;;;;;;;5.80;3.05;;;;;;;;;;4354087;32;66777;-60
2022/09/21 12:03:48;;;;;;;6.22;2.70;;;;;;;;;;4343387;32;65118;-58
2022/09/21 12:06:37;;;;;;;6.43;3.10;;;;;;;;;;4356879;32;59767;-59
2022/09/21 12:09:46;;;;;;;4.70;2.95;;;;;;;;;;4332686;32;68996;-60
2022/09/21 12:12:36;;;;;;;;;;;;;;;;;;4346374;32;69376;-61
2022/09/21 12:15:54;;;;;;;5.70;3.65;;;;;;;;;;4356849;32;66837;-60
2022/09/21 12:19:03;;;;;;;5.62;3.33;;;;;;;;;;4356704;32;59938;-59
2022/09/21 12:21:55;;;;;;;6.90;3.40;;;;;;;;;;4346037;32;69247;-59
2022/09/21 12:24:55;;;;;;;9.25;3.40;;;;;;;;;;4345929;32;69345;-59
2022/09/21 12:27:56;;;;;;;7.25;3.50;;;;;;;;;;4356535;32;66677;-61
2022/09/21 12:30:46;;;;;;;8.88;3.25;;;;;;;;;;4356269;32;70825;-60
2022/09/21 12:33:57;;;;;;;5.07;3.03;;;;;;;;;;4356538;32;65948;-59
2022/09/21 12:36:59;;;;;;;6.75;3.60;;;;;;;;;;4367995;32;67949;-60
2022/09/21 12:39:58;;;;;;;7.65;3.50;;;;;;;;;;4356278;32;59255;-59
2022/09/21 12:43:19;;;;;;;5.85;3.17;;;;;;;;;;4345590;32;70868;-59
2022/09/21 12:46:11;;;;;;;6.15;3.60;;;;;;;;;;4356149;32;66269;-58
2022/09/21 12:49:01;;;;;;;5.00;4.18;;;;;;;;;;4356217;32;67981;-58
2022/09/21 12:51:54;;;;;;;10.20;3.95;;;;;;;;;;4343394;32;60804;-59
2022/09/21 12:54:48;;;;;;;7.30;3.33;;;;;;;;;;4367657;32;70440;-59
2022/09/21 12:57:56;;;;;;;5.55;3.28;;;;;;;;;;4356648;32;69477;-60
2022/09/21 13:01:11;;;;;;;6.03;3.35;;;;;;;;;;4345543;32;67756;-60
2022/09/21 13:04:16;;;;;;;8.73;3.37;;;;;;;;;;4367552;32;70610;-60
2022/09/21 13:07:43;;;;;;;5.97;3.53;;;;;;;;;;4368139;32;66013;-58
2022/09/21 13:10:59;;;;;;;4.78;3.00;;;;;;;;;;4356023;32;69198;-59
2022/09/21 13:13:58;;;;;;;8.05;3.78;;;;;;;;;;4342828;32;68098;-58
2022/09/21 13:16:57;;;;;;;8.10;3.80;;;;;;;;;;4355900;32;71708;-59
2022/09/21 13:19:44;;;;;;;7.05;3.95;;;;;;;;;;4334789;32;64899;-59
2022/09/21 13:22:33;;;;;;;8.00;3.75;;;;;;;;;;4345132;32;68133;-58
2022/09/21 13:25:23;;;;;;;7.47;3.85;;;;;;;;;;4345565;32;58977;-60
2022/09/21 13:28:14;;;;;;;8.48;3.40;;;;;;;;;;4356051;32;70468;-59
2022/09/21 13:31:16;;;;;;;5.57;3.28;;;;;;;;;;4355861;32;69320;-60
2022/09/21 13:34:05;;;;;;;7.95;3.50;;;;;;;;;;4367434;32;67925;-62
2022/09/21 13:37:12;;;;;;;8.85;4.45;;;;;;;;;;4355269;32;59728;-60
2022/09/21 13:40:02;;;;;;;7.07;4.18;;;;;;;;;;4355589;32;70409;-59
2022/09/21 13:42:49;;;;;;;12.90;4.78;;;;;;;;;;4367651;32;68241;-60
2022/09/21 13:45:36;;;;;;;7.18;3.75;;;;;;;;;;4355685;32;66583;-58
2022/09/21 13:48:28;;;;;;;10.38;3.10;;;;;;;;;;4332114;32;71197;-58
2022/09/21 13:51:16;;;;;;;6.57;3.05;;;;;;;;;;4356041;32;65678;-59
2022/09/21 13:54:03;;;;;;;9.20;3.35;;;;;;;;;;4345366;32;68360;-58
2022/09/21 13:57:20;;;;;;;8.93;2.97;;;;;;;;;;4356146;32;59978;-59
2022/09/21 14:00:12;;;;;;;7.50;3.55;;;;;;;;;;4322356;32;69313;-58
2022/09/21 14:03:19;;;;;;;11.63;6.25;;;;;;;;;;4367422;32;66273;-59
2022/09/21 14:06:12;;;;;;;16.77;7.70;;;;;;;;;;4369306;32;67121;-58
2022/09/21 14:09:02;;;;;;;16.60;7.20;;;;;;;;;;4370169;32;60149;-58
2022/09/21 14:11:55;;;;;;;13.02;6.50;;;;;;;;;;4344297;32;69218;-59
2022/09/21 14:14:42;;;;;;;16.73;6.97;;;;;;;;;;4347549;32;68442;-59
2022/09/21 14:17:37;;;;;;;11.60;7.03;;;;;;;;;;4357853;32;66740;-60
2022/09/21 14:20:28;;;;;;;14.57;7.55;;;;;;;;;;4369713;32;71930;-60
2022/09/21 14:23:18;;;;;;;16.98;7.87;;;;;;;;;;4358044;32;65968;-60
2022/09/21 14:26:46;;;;;;;19.27;9.85;;;;;;;;;;4344524;32;68690;-59
2022/09/21 14:29:47;;;;;;;15.43;8.45;;;;;;;;;;4344524;32;66758;-59
2022/09/21 14:33:05;;;;;;;23.45;10.93;;;;;;;;;;4354989;32;71037;-58
2022/09/21 14:38:41;;;;;;;21.98;11.23;;;;;;;;;;3846214;37;43637;-60
2022/09/21 14:41:37;;;;;;;15.57;9.10;;;;;;;;;;4388475;32;59320;-58
2022/09/21 14:44:30;;;;;;;20.92;9.32;;;;;;;;;;4399050;32;69793;-60
2022/09/21 14:47:50;;;;;;;24.00;10.20;;;;;;;;;;4399448;32;69308;-59
2022/09/21 14:51:00;;;;;;;24.35;9.43;;;;;;;;;;4374591;32;68904;-60
2022/09/21 14:53:54;;;;;;;19.58;9.43;;;;;;;;;;4388075;32;71770;-58
2022/09/21 14:56:41;;;;;;;21.20;10.32;;;;;;;;;;4388034;32;65546;-59
2022/09/21 14:59:57;;;;;;;20.12;10.30;;;;;;;;;;4387864;32;67384;-59
2022/09/21 15:02:44;;;;;;;20.23;9.88;;;;;;;;;;4398594;32;60787;-60
2022/09/21 15:05:37;;;;;;;21.75;10.18;;;;;;;;;;4390110;32;71851;-59
2022/09/21 15:11:50;;;;;;;22.97;10.33;;;;;;;;;;4394903;32;67409;-58
2022/09/21 15:15:00;;;;;;;19.92;9.80;;;;;;;;;;4383714;32;59470;-59
2022/09/21 15:17:58;;;;;;;21.33;9.13;;;;;;;;;;4380340;32;71690;-59
2022/09/21 15:20:53;;;;;;;18.27;9.77;;;;;;;;;;4383115;32;68381;-60
2022/09/21 15:23:40;;;;;;;16.92;8.80;;;;;;;;;;4383112;32;67610;-59
2022/09/21 15:26:31;;;;;;;18.92;9.32;;;;;;;;;;4372535;32;71520;-60
2022/09/21 15:29:26;;;;;;;17.33;9.52;;;;;;;;;;4370159;32;66802;-61
2022/09/21 15:32:55;;;;;;;17.90;9.13;;;;;;;;;;4382946;32;69173;-60
2022/09/21 15:35:46;;;;;;;15.75;9.60;;;;;;;;;;4332123;32;67646;-59
2022/09/21 15:38:35;;;;;;;15.38;9.25;;;;;;;;;;4321668;32;71437;-59
2022/09/21 15:42:09;;;;;;;18.02;10.98;;;;;;;;;;4379712;32;66034;-59
2022/09/21 15:45:15;;;;;;;14.38;8.52;;;;;;;;;;4382948;32;67910;-60
2022/09/21 15:48:03;;;;;;;16.75;8.45;;;;;;;;;;4380458;32;60552;-60
2022/09/21 15:51:23;;;;;;;14.18;7.90;;;;;;;;;;4372636;32;70437;-59
2022/09/21 15:54:34;;;;;;;14.80;8.10;;;;;;;;;;4372756;32;69311;-61
2022/09/21 15:57:41;;;;;;;9.27;6.37;;;;;;;;;;4372753;32;67547;-59
2022/09/21 16:00:30;;;;;;;11.48;6.93;;;;;;;;;;4373416;32;59970;-59
2022/09/21 16:03:22;;;;;;;8.80;5.32;;;;;;;;;;4372727;32;70613;-60
2022/09/21 16:06:34;;;;;;;8.75;5.25;;;;;;;;;;4372467;32;68232;-60
2022/09/21 16:09:28;;;;;;;14.50;6.00;;;;;;;;;;4383325;32;67611;-59
2022/09/21 16:12:41;;;;;;;7.65;5.12;;;;;;;;;;4359008;32;72177;-59
2022/09/21 16:15:30;;;;;;;10.43;5.25;;;;;;;;;;4362047;32;66024;-58
2022/09/21 16:18:42;;;;;;;10.25;5.40;;;;;;;;;;4372649;32;67638;-58
2022/09/21 16:21:34;;;;;;;12.52;5.80;;;;;;;;;;4384691;32;60320;-59
2022/09/21 16:24:25;;;;;;;12.73;6.32;;;;;;;;;;4372206;32;70544;-59
2022/09/21 16:27:17;;;;;;;10.52;5.90;;;;;;;;;;4372689;32;65300;-59
2022/09/21 16:30:03;;;;;;;13.05;6.95;;;;;;;;;;4348533;32;68265;-60
2022/09/21 16:32:51;;;;;;;12.80;6.90;;;;;;;;;;4372714;32;59225;-58
2022/09/21 16:35:39;;;;;;;12.52;6.93;;;;;;;;;;4372175;32;70988;-58
2022/09/21 16:38:26;;;;;;;12.10;6.93;;;;;;;;;;4361348;32;68409;-58
2022/09/21 16:41:15;;;;;;;13.75;7.20;;;;;;;;;;4372135;32;66697;-58
2022/09/21 16:44:03;;;;;;;13.93;7.18;;;;;;;;;;4372020;32;70773;-58
2022/09/21 16:46:55;;;;;;;14.70;7.57;;;;;;;;;;4372384;32;65854;-58
2022/09/21 16:49:43;;;;;;;13.75;7.22;;;;;;;;;;4372370;32;66683;-59
2022/09/21 16:52:30;;;;;;;13.73;7.55;;;;;;;;;;4359189;32;66207;-59
2022/09/21 16:55:17;;;;;;;11.70;6.70;;;;;;;;;;4358788;32;71892;-59
2022/09/21 16:58:04;;;;;;;12.93;7.37;;;;;;;;;;4361481;32;65019;-58
2022/09/21 17:00:52;;;;;;;17.17;6.65;;;;;;;;;;4371357;32;67397;-58
2022/09/21 17:03:39;;;;;;;13.60;6.87;;;;;;;;;;4359129;32;60884;-58
2022/09/21 17:06:26;;;;;;;13.25;6.57;;;;;;;;;;4369623;32;70766;-58
2022/09/21 17:09:19;;;;;;;11.43;6.57;;;;;;;;;;4371826;32;68302;-58
2022/09/21 17:12:09;;;;;;;13.77;6.40;;;;;;;;;;4372057;32;67906;-58
2022/09/21 17:14:56;;;;;;;13.35;6.60;;;;;;;;;;4370100;32;60846;-58
2022/09/21 17:17:43;;;;;;;12.82;7.62;;;;;;;;;;4348125;32;70470;-58
2022/09/21 17:20:41;;;;;;;12.88;6.40;;;;;;;;;;4371863;32;68232;-60
2022/09/21 17:23:28;;;;;;;11.38;6.20;;;;;;;;;;4384064;32;67918;-58
2022/09/21 17:26:19;;;;;;;13.18;7.18;;;;;;;;;;4371930;32;71575;-59
2022/09/21 17:29:22;;;;;;;16.35;7.20;;;;;;;;;;4368985;32;67929;-58
2022/09/21 17:32:10;;;;;;;11.98;6.25;;;;;;;;;;4383687;32;66572;-59
2022/09/21 17:35:00;;;;;;;12.55;6.78;;;;;;;;;;4371989;32;59295;-58
2022/09/21 17:37:46;;;;;;;12.85;5.97;;;;;;;;;;4371000;32;70637;-61
2022/09/21 17:40:34;;;;;;;11.32;6.50;;;;;;;;;;4368688;32;65731;-58
2022/09/21 17:44:02;;;;;;;10.77;6.30;;;;;;;;;;4371528;32;67606;-58
2022/09/21 17:46:59;;;;;;;13.32;6.78;;;;;;;;;;4372019;32;60002;-59
2022/09/21 17:49:47;;;;;;;9.98;6.87;;;;;;;;;;4371209;32;69568;-59
2022/09/21 17:55:53;;;;;;;14.18;6.45;;;;;;;;;;4373426;32;66818;-58
2022/09/21 17:59:01;;;;;;;17.37;6.87;;;;;;;;;;4382932;32;71448;-60
2022/09/21 18:01:48;;;;;;;15.63;6.62;;;;;;;;;;4358604;32;66770;-59
2022/09/21 18:04:36;;;;;;;13.45;7.05;;;;;;;;;;4347629;32;68046;-58
2022/09/21 18:07:23;;;;;;;12.75;7.10;;;;;;;;;;4368403;32;68359;-60
2022/09/21 18:10:13;;;;;;;15.88;6.50;;;;;;;;;;4371289;32;71783;-59
2022/09/21 18:13:02;;;;;;;12.60;6.85;;;;;;;;;;4370975;32;64886;-59
2022/09/21 18:16:09;;;;;;;16.35;7.65;;;;;;;;;;4381649;32;67465;-60
2022/09/21 18:19:04;;;;;;;10.85;7.70;;;;;;;;;;4383018;32;60116;-59
2022/09/21 18:22:00;;;;;;;17.42;7.65;;;;;;;;;;4381419;32;70652;-59
2022/09/21 18:24:46;;;;;;;14.30;7.85;;;;;;;;;;4371880;32;69515;-59
2022/09/21 18:27:33;;;;;;;16.15;8.10;;;;;;;;;;4372234;32;67575;-61
2022/09/21 18:30:19;;;;;;;20.58;8.13;;;;;;;;;;4372215;32;71735;-60
2022/09/21 18:33:19;;;;;;;;;;;;;;;;;;4384525;32;69657;-59
2022/09/21 18:36:19;;;;;;;18.30;8.02;;;;;;;;;;4357791;32;69992;-59
2022/09/21 18:39:38;;;;;;;21.48;8.05;;;;;;;;;;4370895;32;67772;-59
2022/09/21 18:43:05;;;;;;;18.85;8.25;;;;;;;;;;4382489;32;71690;-61
2022/09/21 18:46:00;;;;;;;16.13;7.23;;;;;;;;;;4358651;32;64662;-60
2022/09/21 18:48:55;;;;;;;14.27;7.82;;;;;;;;;;4360265;32;67019;-60
2022/09/21 18:51:56;;;;;;;16.02;8.30;;;;;;;;;;4371068;32;60506;-60
2022/09/21 18:54:43;;;;;;;20.10;9.05;;;;;;;;;;4357500;32;70220;-60
2022/09/21 18:57:31;;;;;;;20.10;8.90;;;;;;;;;;4370570;32;69589;-60
2022/09/21 19:00:15;;;;;;;18.10;8.57;;;;;;;;;;3847624;37;43116;-61
2022/09/21 19:03:06;;;;;;;15.75;8.38;;;;;;;;;;4399288;32;60355;-60
2022/09/21 19:06:31;;;;;;;16.65;7.78;;;;;;;;;;4409452;32;70448;-59
2022/09/21 19:09:30;;;;;;;17.58;8.35;;;;;;;;;;4409501;32;69565;-60
2022/09/21 19:12:31;;;;;;;20.10;8.98;;;;;;;;;;4409634;32;67461;-60
2022/09/21 19:15:37;;;;;;;16.45;8.57;;;;;;;;;;4409352;32;70773;-60
2022/09/21 19:18:36;;;;;;;18.62;8.57;;;;;;;;;;4409580;32;64881;-60
2022/09/21 19:21:32;;;;;;;14.73;8.32;;;;;;;;;;4398099;32;67169;-60
2022/09/21 19:24:24;;;;;;;20.65;8.70;;;;;;;;;;4398693;32;59229;-60
2022/09/21 19:27:37;;;;;;;17.17;8.20;;;;;;;;;;4409287;32;70715;-59
2022/09/21 19:30:25;;;;;;;16.20;8.38;;;;;;;;;;4409201;32;65973;-59
2022/09/21 19:33:24;;;;;;;19.85;8.45;;;;;;;;;;4398717;32;66820;-61
2022/09/21 19:36:12;;;;;;;20.48;8.73;;;;;;;;;;4409658;32;59400;-60
2022/09/21 19:38:59;;;;;;;18.62;8.52;;;;;;;;;;4398314;32;70669;-60
2022/09/21 19:41:57;;;;;;;14.45;8.18;;;;;;;;;;4398384;32;69337;-60
2022/09/21 19:45:10;;;;;;;17.55;8.18;;;;;;;;;;4397760;32;67323;-60
2022/09/21 19:48:04;;;;;;;15.55;8.18;;;;;;;;;;4398132;32;71753;-60
2022/09/21 19:50:57;;;;;;;15.88;8.77;;;;;;;;;;4409360;32;64984;-59
2022/09/21 19:59:55;;;;;;;16.83;8.32;;;;;;;;;;4408649;32;71248;-60
2022/09/21 20:03:07;;;;;;;14.38;7.95;;;;;;;;;;4387361;32;66708;-60
2022/09/21 20:06:15;;;;;;;14.95;8.05;;;;;;;;;;4397597;32;67142;-60
2022/09/21 20:09:08;;;;;;;14.40;8.15;;;;;;;;;;4409162;32;60358;-59
2022/09/21 20:12:17;;;;;;;18.35;7.95;;;;;;;;;;4398395;32;70684;-60
2022/09/21 20:15:14;;;;;;;17.17;8.18;;;;;;;;;;4376489;32;68948;-60
2022/09/21 20:18:11;;;;;;;12.20;8.38;;;;;;;;;;4388026;32;66412;-60
2022/09/21 20:20:57;;;;;;;13.80;7.70;;;;;;;;;;4388249;32;59469;-60
2022/09/21 20:23:44;;;;;;;18.42;8.57;;;;;;;;;;4377169;32;70504;-60
2022/09/21 20:26:31;;;;;;;;;;;;;;;;;;4388153;32;69242;-60
2022/09/21 20:29:18;;;;;;;17.08;8.07;;;;;;;;;;4398727;32;67905;-60
2022/09/21 20:32:06;;;;;;;16.17;7.57;;;;;;;;;;4387641;32;71876;-60
2022/09/21 20:34:53;;;;;;;13.30;8.13;;;;;;;;;;4387245;32;66548;-59
2022/09/21 20:37:41;;;;;;;14.90;8.30;;;;;;;;;;4387880;32;66795;-60
2022/09/21 20:40:28;;;;;;;14.35;7.50;;;;;;;;;;4387823;32;59376;-60
2022/09/21 20:43:15;;;;;;;16.42;8.52;;;;;;;;;;4376587;32;69058;-61
2022/09/21 20:46:02;;;;;;;18.85;8.10;;;;;;;;;;4387054;32;66695;-60
2022/09/21 20:48:54;;;;;;;13.75;8.07;;;;;;;;;;4387644;32;67569;-59
2022/09/21 20:51:41;;;;;;;14.30;8.32;;;;;;;;;;4387675;32;59249;-59
2022/09/21 20:54:27;;;;;;;17.00;7.65;;;;;;;;;;4387742;32;70489;-59
2022/09/21 20:57:14;;;;;;;13.48;7.43;;;;;;;;;;4387480;32;68237;-60
2022/09/21 21:00:01;;;;;;;;;;;;;;;;;;4387240;32;66890;-59
2022/09/21 21:02:48;;;;;;;13.05;7.40;;;;;;;;;;4398285;32;70853;-60
2022/09/21 21:05:34;;;;;;;11.98;6.55;;;;;;;;;;4376807;32;65016;-59
2022/09/21 21:08:22;;;;;;;11.82;6.75;;;;;;;;;;4387827;32;67700;-61
2022/09/21 21:11:09;;;;;;;10.00;6.12;;;;;;;;;;4376722;32;67844;-58
2022/09/21 21:13:57;;;;;;;11.32;6.90;;;;;;;;;;4398020;32;71637;-58
2022/09/21 21:16:44;;;;;;;12.98;6.87;;;;;;;;;;4397877;32;66135;-59
2022/09/21 21:19:32;;;;;;;10.02;6.18;;;;;;;;;;4387357;32;67356;-60
2022/09/21 21:22:18;;;;;;;13.43;6.93;;;;;;;;;;4386701;32;60016;-60
2022/09/21 21:25:05;;;;;;;10.52;6.43;;;;;;;;;;4386863;32;70291;-60
2022/09/21 21:27:56;;;;;;;10.93;6.30;;;;;;;;;;4376100;32;70082;-60
2022/09/21 21:30:43;;;;;;;11.23;6.07;;;;;;;;;;4397687;32;67910;-60
2022/09/21 21:33:29;;;;;;;9.52;6.32;;;;;;;;;;4376029;32;60549;-60
2022/09/21 21:36:16;;;;;;;;;;;;;;;;;;4398091;32;70431;-58
2022/09/21 21:39:02;;;;;;;11.02;6.60;;;;;;;;;;4398915;32;68112;-59
2022/09/21 21:41:49;;;;;;;12.63;6.85;;;;;;;;;;4375749;32;68328;-59
2022/09/21 21:44:36;;;;;;;10.77;7.07;;;;;;;;;;4386769;32;71835;-59
2022/09/21 21:47:23;;;;;;;9.27;6.70;;;;;;;;;;4386889;32;65787;-60
2022/09/21 21:50:09;;;;;;;;;;;;;;;;;;4387113;32;66651;-59
2022/09/21 21:52:59;;;;;;;13.62;6.70;;;;;;;;;;4387229;32;59742;-60
2022/09/21 21:55:46;;;;;;;10.82;6.80;;;;;;;;;;4386476;32;70410;-60
2022/09/21 21:58:34;;;;;;;11.73;7.35;;;;;;;;;;4386264;32;65711;-60
2022/09/21 22:01:24;;;;;;;10.70;6.60;;;;;;;;;;4375789;32;65995;-59
2022/09/21 22:04:11;;;;;;;9.73;6.57;;;;;;;;;;4397565;32;60345;-60
2022/09/21 22:06:57;;;;;;;12.68;6.60;;;;;;;;;;4364815;32;70140;-60
2022/09/21 22:09:44;;;;;;;11.40;7.15;;;;;;;;;;4386881;32;68336;-60
2022/09/21 22:12:31;;;;;;;11.60;7.15;;;;;;;;;;4386497;32;67812;-60
2022/09/21 22:15:18;;;;;;;11.10;6.43;;;;;;;;;;4386405;32;70473;-60
2022/09/21 22:18:05;;;;;;;;;;;;;;;;;;4398946;32;65852;-60
2022/09/21 22:20:51;;;;;;;11.90;7.32;;;;;;;;;;4397435;32;67518;-60
2022/09/21 22:23:38;;;;;;;10.60;6.68;;;;;;;;;;4386376;32;67927;-60
2022/09/21 22:26:26;;;;;;;11.02;6.68;;;;;;;;;;4386509;32;71702;-60
2022/09/21 22:29:13;;;;;;;10.27;6.05;;;;;;;;;;4398626;32;65384;-60
2022/09/21 22:32:00;;;;;;;13.32;7.20;;;;;;;;;;4397156;32;67519;-61
2022/09/21 22:34:49;;;;;;;9.68;6.20;;;;;;;;;;4375780;32;60177;-60
2022/09/21 22:37:36;;;;;;;9.43;6.03;;;;;;;;;;4386276;32;70507;-59
2022/09/21 22:40:23;;;;;;;11.07;6.20;;;;;;;;;;4375497;32;68368;-60
2022/09/21 22:43:10;;;;;;;11.20;7.10;;;;;;;;;;4386256;32;67904;-60
2022/09/21 22:45:56;;;;;;;;;;;;;;;;;;4364978;32;72268;-59
2022/09/21 22:48:43;;;;;;;11.25;7.30;;;;;;;;;;4398413;32;69863;-60
2022/09/21 22:51:30;;;;;;;9.27;6.57;;;;;;;;;;4386178;32;69319;-60
2022/09/21 22:54:17;;;;;;;11.05;7.50;;;;;;;;;;4375561;32;66683;-61
2022/09/21 22:57:04;;;;;;;11.50;6.95;;;;;;;;;;4386006;32;71825;-61
2022/09/21 22:59:51;;;;;;;10.55;6.60;;;;;;;;;;4396397;32;66241;-60
2022/09/21 23:02:37;;;;;;;11.15;6.40;;;;;;;;;;4386128;32;67549;-59
2022/09/21 23:05:24;;;;;;;;;;;;;;;;;;4386526;32;60335;-60
2022/09/21 23:08:11;;;;;;;11.90;6.80;;;;;;;;;;4386188;32;70481;-60
2022/09/21 23:11:05;;;;;;;10.88;6.87;;;;;;;;;;4385984;32;69265;-60
2022/09/21 23:13:52;;;;;;;9.38;6.97;;;;;;;;;;4396804;32;67550;-60
2022/09/21 23:16:39;;;;;;;12.18;6.90;;;;;;;;;;4386171;32;60237;-60
2022/09/21 23:19:25;;;;;;;13.43;7.18;;;;;;;;;;4385701;32;70482;-59
2022/09/21 23:22:12;;;;;;;9.98;6.68;;;;;;;;;;4375335;32;69393;-59
2022/09/21 23:24:58;;;;;;;12.00;6.75;;;;;;;;;;4385932;32;67628;-59
2022/09/21 23:27:45;;;;;;;13.98;6.72;;;;;;;;;;4385190;32;72150;-59
2022/09/21 23:30:32;;;;;;;12.43;6.70;;;;;;;;;;4385782;32;65034;-59
2022/09/21 23:33:18;;;;;;;11.90;6.97;;;;;;;;;;4385655;32;66628;-60
2022/09/21 23:36:07;;;;;;;14.18;6.72;;;;;;;;;;4385858;32;60277;-60
2022/09/21 23:38:54;;;;;;;12.13;7.70;;;;;;;;;;4397532;32;71485;-59
2022/09/21 23:41:40;;;;;;;;;;;;;;;;;;4375230;32;67031;-60
2022/09/21 23:44:27;;;;;;;11.35;6.70;;;;;;;;;;4397797;32;68027;-60
2022/09/21 23:47:13;;;;;;;12.35;7.43;;;;;;;;;;4377905;32;59090;-61
2022/09/21 23:50:00;;;;;;;8.80;5.65;;;;;;;;;;4388510;32;69632;-60
2022/09/21 23:52:46;;;;;;;12.98;6.45;;;;;;;;;;4398994;32;68344;-59
2022/09/21 23:55:34;;;;;;;9.35;6.78;;;;;;;;;;4388381;32;66708;-61
2022/09/21 23:58:20;;;;;;;12.37;6.75;;;;;;;;;;4366396;32;71310;-60
